Terminal Aerodrome Forecast
Issued by NWS Jackson, MS

Home | Current Version | Previous Version | Text Only | Print | Product List | Glossary On
Versions: 1 2 3 4 5 6 7 8 9 10 11 12 13 14 15 16
956
FTUS44 KJAN 252320
TAFMEI
TAF
KMEI 252320Z 2600/2624 22004KT P6SM SKC
     FM261400 21011KT P6SM SKC
     FM261800 20015G21KT P6SM SKC
     FM262200 20013KT P6SM SKC=

USA.gov is the U.S. government's official web portal to all federal, state and local government web resources and services.